sensor_id;sensor_type;location;lat;lon;timestamp;pressure;altitude;pressure_sealevel;temperature;humidity
26775;BME280;14362;51.902;7.626;2023-04-19T00:02:10;102142.09;;;11.49;100.00
26775;BME280;14362;51.902;7.626;2023-04-19T00:06:13;102130.66;;;11.46;100.00
26775;BME280;14362;51.902;7.626;2023-04-19T00:10:15;102127.63;;;11.42;100.00
26775;BME280;14362;51.902;7.626;2023-04-19T00:14:16;102132.31;;;11.23;100.00
26775;BME280;14362;51.902;7.626;2023-04-19T00:18:18;102125.22;;;11.36;100.00
26775;BME280;14362;51.902;7.626;2023-04-19T00:22:21;102128.50;;;11.15;100.00
26775;BME280;14362;51.902;7.626;2023-04-19T00:26:22;102129.56;;;11.18;100.00
26775;BME280;14362;51.902;7.626;2023-04-19T00:30:24;102131.94;;;11.07;100.00
26775;BME280;14362;51.902;7.626;2023-04-19T00:34:25;102122.53;;;10.98;100.00
26775;BME280;14362;51.902;7.626;2023-04-19T00:38:28;102124.47;;;11.02;100.00
26775;BME280;14362;51.902;7.626;2023-04-19T00:42:30;102119.94;;;11.06;100.00
26775;BME280;14362;51.902;7.626;2023-04-19T00:46:31;102113.13;;;10.89;100.00
26775;BME280;14362;51.902;7.626;2023-04-19T00:50:32;102120.22;;;10.76;100.00
26775;BME280;14362;51.902;7.626;2023-04-19T00:54:36;102111.16;;;10.61;100.00
26775;BME280;14362;51.902;7.626;2023-04-19T00:58:40;102116.31;;;10.44;100.00
26775;BME280;14362;51.902;7.626;2023-04-19T01:02:41;102112.41;;;10.45;100.00
26775;BME280;14362;51.902;7.626;2023-04-19T01:06:43;102109.53;;;10.55;100.00
26775;BME280;14362;51.902;7.626;2023-04-19T01:10:45;102102.72;;;10.71;100.00
26775;BME280;14362;51.902;7.626;2023-04-19T01:14:49;102106.47;;;10.51;100.00
26775;BME280;14362;51.902;7.626;2023-04-19T01:18:50;102109.34;;;10.46;100.00
26775;BME280;14362;51.902;7.626;2023-04-19T01:22:53;102110.94;;;10.52;100.00
26775;BME280;14362;51.902;7.626;2023-04-19T01:26:54;102105.47;;;10.42;100.00
26775;BME280;14362;51.902;7.626;2023-04-19T01:30:56;102109.47;;;10.60;100.00
26775;BME280;14362;51.902;7.626;2023-04-19T01:34:57;102108.09;;;10.62;100.00
26775;BME280;14362;51.902;7.626;2023-04-19T01:39:00;102104.41;;;10.67;100.00
26775;BME280;14362;51.902;7.626;2023-04-19T01:43:02;102110.88;;;10.62;100.00
26775;BME280;14362;51.902;7.626;2023-04-19T01:47:03;102105.91;;;10.54;100.00
26775;BME280;14362;51.902;7.626;2023-04-19T01:51:05;102109.59;;;10.45;100.00
26775;BME280;14362;51.902;7.626;2023-04-19T01:55:08;102100.69;;;10.43;100.00
26775;BME280;14362;51.902;7.626;2023-04-19T01:59:09;102099.81;;;10.47;100.00
26775;BME280;14362;51.902;7.626;2023-04-19T02:03:11;102105.53;;;10.66;100.00
26775;BME280;14362;51.902;7.626;2023-04-19T02:07:12;102100.97;;;10.46;100.00
26775;BME280;14362;51.902;7.626;2023-04-19T02:11:15;102095.44;;;10.41;100.00
26775;BME280;14362;51.902;7.626;2023-04-19T02:15:16;102099.91;;;10.37;100.00
26775;BME280;14362;51.902;7.626;2023-04-19T02:19:18;102104.88;;;10.45;100.00
26775;BME280;14362;51.902;7.626;2023-04-19T02:23:19;102101.13;;;10.60;100.00
26775;BME280;14362;51.902;7.626;2023-04-19T02:27:22;102103.50;;;10.38;100.00
26775;BME280;14362;51.902;7.626;2023-04-19T02:31:24;102106.06;;;10.34;100.00
26775;BME280;14362;51.902;7.626;2023-04-19T02:35:25;102100.81;;;10.28;100.00
26775;BME280;14362;51.902;7.626;2023-04-19T02:39:27;102108.88;;;10.29;100.00
26775;BME280;14362;51.902;7.626;2023-04-19T02:43:29;102104.19;;;10.25;100.00
26775;BME280;14362;51.902;7.626;2023-04-19T02:47:31;102107.25;;;10.23;100.00
26775;BME280;14362;51.902;7.626;2023-04-19T02:51:32;102110.63;;;10.20;100.00
26775;BME280;14362;51.902;7.626;2023-04-19T02:55:34;102109.78;;;10.20;100.00
26775;BME280;14362;51.902;7.626;2023-04-19T02:59:37;102110.59;;;10.25;100.00
26775;BME280;14362;51.902;7.626;2023-04-19T03:03:38;102106.16;;;10.24;100.00
26775;BME280;14362;51.902;7.626;2023-04-19T03:07:39;102102.88;;;10.13;100.00
26775;BME280;14362;51.902;7.626;2023-04-19T03:11:41;102101.47;;;10.15;100.00
26775;BME280;14362;51.902;7.626;2023-04-19T03:15:44;102107.06;;;10.10;100.00
26775;BME280;14362;51.902;7.626;2023-04-19T03:19:45;102107.94;;;10.06;100.00
26775;BME280;14362;51.902;7.626;2023-04-19T03:23:47;102111.53;;;10.11;100.00
26775;BME280;14362;51.902;7.626;2023-04-19T03:27:48;102103.75;;;10.03;100.00
26775;BME280;14362;51.902;7.626;2023-04-19T03:31:52;102107.88;;;10.11;92.75
26775;BME280;14362;51.902;7.626;2023-04-19T03:35:54;102104.06;;;10.02;89.38
26775;BME280;14362;51.902;7.626;2023-04-19T03:39:55;102099.66;;;9.86;85.96
26775;BME280;14362;51.902;7.626;2023-04-19T03:43:56;102094.03;;;9.96;76.28
26775;BME280;14362;51.902;7.626;2023-04-19T03:47:59;102098.50;;;10.02;69.87
26775;BME280;14362;51.902;7.626;2023-04-19T03:52:02;102102.47;;;9.81;69.74
26775;BME280;14362;51.902;7.626;2023-04-19T03:56:04;102093.59;;;9.74;68.75
26775;BME280;14362;51.902;7.626;2023-04-19T04:00:06;102098.56;;;9.87;69.25
26775;BME280;14362;51.902;7.626;2023-04-19T04:04:09;102098.34;;;9.68;71.02
26775;BME280;14362;51.902;7.626;2023-04-19T04:08:11;102107.31;;;9.55;73.82
26775;BME280;14362;51.902;7.626;2023-04-19T04:12:13;102097.56;;;9.58;74.01
26775;BME280;14362;51.902;7.626;2023-04-19T04:16:15;102105.41;;;9.51;75.41
26775;BME280;14362;51.902;7.626;2023-04-19T04:20:18;102108.69;;;9.63;74.49
26775;BME280;14362;51.902;7.626;2023-04-19T04:24:20;102111.25;;;9.49;78.64
26775;BME280;14362;51.902;7.626;2023-04-19T04:28:21;102113.78;;;9.41;77.01
26775;BME280;14362;51.902;7.626;2023-04-19T04:32:23;102119.91;;;9.38;75.49
26775;BME280;14362;51.902;7.626;2023-04-19T04:36:26;102108.81;;;9.18;79.53
26775;BME280;14362;51.902;7.626;2023-04-19T04:40:28;102123.34;;;9.10;76.79
26775;BME280;14362;51.902;7.626;2023-04-19T04:44:30;102130.28;;;9.08;78.04
26775;BME280;14362;51.902;7.626;2023-04-19T04:48:33;102130.03;;;8.94;79.38
26775;BME280;14362;51.902;7.626;2023-04-19T04:52:36;102116.72;;;8.76;79.25
26775;BME280;14362;51.902;7.626;2023-04-19T04:56:37;102129.19;;;8.74;80.69
26775;BME280;14362;51.902;7.626;2023-04-19T05:00:39;102128.09;;;8.60;82.85
26775;BME280;14362;51.902;7.626;2023-04-19T05:04:40;102130.03;;;8.59;79.79
26775;BME280;14362;51.902;7.626;2023-04-19T05:08:43;102129.22;;;8.49;79.22
26775;BME280;14362;51.902;7.626;2023-04-19T05:12:44;102138.09;;;8.61;75.92
26775;BME280;14362;51.902;7.626;2023-04-19T05:16:46;102134.47;;;8.50;76.99
26775;BME280;14362;51.902;7.626;2023-04-19T05:20:48;102138.09;;;8.51;73.87
26775;BME280;14362;51.902;7.626;2023-04-19T05:24:50;102139.50;;;8.53;71.99
26775;BME280;14362;51.902;7.626;2023-04-19T05:28:52;102138.66;;;8.48;69.88
26775;BME280;14362;51.902;7.626;2023-04-19T05:32:53;102140.88;;;8.46;72.83
26775;BME280;14362;51.902;7.626;2023-04-19T05:36:55;102150.59;;;8.48;73.33
26775;BME280;14362;51.902;7.626;2023-04-19T05:40:58;102153.66;;;8.57;69.81
26775;BME280;14362;51.902;7.626;2023-04-19T05:44:59;102148.13;;;8.62;70.06
26775;BME280;14362;51.902;7.626;2023-04-19T05:49:01;102138.09;;;8.51;70.22
26775;BME280;14362;51.902;7.626;2023-04-19T05:53:03;102145.03;;;8.48;69.57
26775;BME280;14362;51.902;7.626;2023-04-19T05:57:05;102137.84;;;8.57;69.55
26775;BME280;14362;51.902;7.626;2023-04-19T06:01:07;102137.25;;;8.65;68.71
26775;BME280;14362;51.902;7.626;2023-04-19T06:05:08;102133.38;;;8.61;68.08
26775;BME280;14362;51.902;7.626;2023-04-19T06:09:10;102123.63;;;8.69;69.75
26775;BME280;14362;51.902;7.626;2023-04-19T06:13:14;102124.78;;;8.68;70.37
26775;BME280;14362;51.902;7.626;2023-04-19T06:17:16;102117.22;;;8.78;69.25
26775;BME280;14362;51.902;7.626;2023-04-19T06:21:22;102130.59;;;8.66;68.69
26775;BME280;14362;51.902;7.626;2023-04-19T06:25:23;102139.50;;;8.68;67.49
26775;BME280;14362;51.902;7.626;2023-04-19T06:29:26;102145.88;;;8.79;71.54
26775;BME280;14362;51.902;7.626;2023-04-19T06:33:30;102140.06;;;8.75;66.89
26775;BME280;14362;51.902;7.626;2023-04-19T06:37:32;102147.84;;;8.93;69.08
26775;BME280;14362;51.902;7.626;2023-04-19T06:41:33;102142.81;;;9.10;68.77
26775;BME280;14362;51.902;7.626;2023-04-19T06:45:36;102155.84;;;9.19;65.03
26775;BME280;14362;51.902;7.626;2023-04-19T06:49:37;102164.22;;;9.05;65.74
26775;BME280;14362;51.902;7.626;2023-04-19T06:53:39;102157.53;;;9.15;64.70
26775;BME280;14362;51.902;7.626;2023-04-19T06:57:40;102174.47;;;9.19;64.96
26775;BME280;14362;51.902;7.626;2023-04-19T07:01:44;102169.19;;;9.32;64.15
26775;BME280;14362;51.902;7.626;2023-04-19T07:05:45;102176.41;;;9.33;64.22
26775;BME280;14362;51.902;7.626;2023-04-19T07:09:47;102174.94;;;9.56;64.75
26775;BME280;14362;51.902;7.626;2023-04-19T07:13:49;102181.06;;;9.68;62.46
26775;BME280;14362;51.902;7.626;2023-04-19T07:17:51;102162.91;;;9.80;61.67
26775;BME280;14362;51.902;7.626;2023-04-19T07:21:53;102162.16;;;9.55;61.16
26775;BME280;14362;51.902;7.626;2023-04-19T07:25:57;102165.72;;;9.75;61.63
26775;BME280;14362;51.902;7.626;2023-04-19T07:29:58;102158.41;;;9.84;62.82
26775;BME280;14362;51.902;7.626;2023-04-19T07:34:01;102159.72;;;10.12;61.78
26775;BME280;14362;51.902;7.626;2023-04-19T07:38:02;102168.34;;;10.15;59.18
26775;BME280;14362;51.902;7.626;2023-04-19T07:42:04;102163.03;;;10.18;58.84
26775;BME280;14362;51.902;7.626;2023-04-19T07:46:08;102176.09;;;10.23;58.36
26775;BME280;14362;51.902;7.626;2023-04-19T07:50:11;102163.78;;;10.29;60.88
26775;BME280;14362;51.902;7.626;2023-04-19T07:54:13;102157.53;;;10.47;57.19
26775;BME280;14362;51.902;7.626;2023-04-19T07:58:15;102161.44;;;10.46;57.66
26775;BME280;14362;51.902;7.626;2023-04-19T08:02:16;102155.19;;;10.25;57.26
26775;BME280;14362;51.902;7.626;2023-04-19T08:06:19;102164.88;;;10.33;57.32
26775;BME280;14362;51.902;7.626;2023-04-19T08:10:21;102151.78;;;10.33;58.02
26775;BME280;14362;51.902;7.626;2023-04-19T08:14:23;102144.81;;;10.36;58.38
26775;BME280;14362;51.902;7.626;2023-04-19T08:18:24;102145.50;;;10.51;57.23
26775;BME280;14362;51.902;7.626;2023-04-19T08:22:27;102148.84;;;10.53;54.90
26775;BME280;14362;51.902;7.626;2023-04-19T08:26:29;102134.50;;;10.70;55.46
26775;BME280;14362;51.902;7.626;2023-04-19T08:30:30;102142.75;;;10.85;54.74
26775;BME280;14362;51.902;7.626;2023-04-19T08:34:33;102129.28;;;10.92;54.62
26775;BME280;14362;51.902;7.626;2023-04-19T08:38:36;102137.03;;;10.66;53.94
26775;BME280;14362;51.902;7.626;2023-04-19T08:42:38;102126.34;;;11.07;53.67
26775;BME280;14362;51.902;7.626;2023-04-19T08:46:40;102125.41;;;11.16;52.14
26775;BME280;14362;51.902;7.626;2023-04-19T08:50:42;102126.78;;;10.90;49.66
26775;BME280;14362;51.902;7.626;2023-04-19T08:54:46;102124.09;;;10.80;50.49
26775;BME280;14362;51.902;7.626;2023-04-19T08:58:48;102133.09;;;11.01;49.65
26775;BME280;14362;51.902;7.626;2023-04-19T09:02:50;102125.06;;;10.94;48.40
26775;BME280;14362;51.902;7.626;2023-04-19T09:06:52;102114.53;;;10.86;48.38
26775;BME280;14362;51.902;7.626;2023-04-19T09:10:57;102111.56;;;11.06;48.12
26775;BME280;14362;51.902;7.626;2023-04-19T09:14:58;102100.56;;;11.15;47.40
26775;BME280;14362;51.902;7.626;2023-04-19T09:19:00;102096.84;;;11.24;45.84
26775;BME280;14362;51.902;7.626;2023-04-19T09:23:03;102112.19;;;11.26;43.79
26775;BME280;14362;51.902;7.626;2023-04-19T09:27:08;102109.34;;;11.31;44.14
26775;BME280;14362;51.902;7.626;2023-04-19T09:31:11;102089.19;;;11.34;43.67
26775;BME280;14362;51.902;7.626;2023-04-19T09:35:13;102066.75;;;11.44;42.70
26775;BME280;14362;51.902;7.626;2023-04-19T09:39:27;102070.97;;;11.65;41.84
26775;BME280;14362;51.902;7.626;2023-04-19T09:43:30;102085.06;;;11.55;40.39
26775;BME280;14362;51.902;7.626;2023-04-19T09:47:31;102068.63;;;11.49;40.86
26775;BME280;14362;51.902;7.626;2023-04-19T09:51:39;102064.38;;;11.56;41.51
26775;BME280;14362;51.902;7.626;2023-04-19T09:55:40;102070.91;;;11.70;42.43
26775;BME280;14362;51.902;7.626;2023-04-19T09:59:44;102061.47;;;11.85;44.63
26775;BME280;14362;51.902;7.626;2023-04-19T10:03:47;102054.38;;;11.92;43.60
26775;BME280;14362;51.902;7.626;2023-04-19T10:07:49;102043.69;;;11.99;41.91
26775;BME280;14362;51.902;7.626;2023-04-19T10:11:51;102049.72;;;12.06;41.38
26775;BME280;14362;51.902;7.626;2023-04-19T10:15:54;102039.16;;;12.03;42.26
26775;BME280;14362;51.902;7.626;2023-04-19T10:20:00;102046.75;;;12.16;42.73
26775;BME280;14362;51.902;7.626;2023-04-19T10:24:06;102040.72;;;12.27;42.95
26775;BME280;14362;51.902;7.626;2023-04-19T10:28:08;102024.75;;;12.28;43.12
26775;BME280;14362;51.902;7.626;2023-04-19T10:32:13;102027.25;;;12.29;43.18
26775;BME280;14362;51.902;7.626;2023-04-19T10:36:15;102015.13;;;12.52;43.01
26775;BME280;14362;51.902;7.626;2023-04-19T10:45:32;102000.81;;;12.54;42.61
26775;BME280;14362;51.902;7.626;2023-04-19T10:49:44;102002.16;;;12.43;43.00
26775;BME280;14362;51.902;7.626;2023-04-19T10:53:57;102000.00;;;12.67;44.12
26775;BME280;14362;51.902;7.626;2023-04-19T10:58:05;101990.16;;;12.56;43.86
26775;BME280;14362;51.902;7.626;2023-04-19T11:02:25;101975.47;;;12.77;44.30
26775;BME280;14362;51.902;7.626;2023-04-19T11:06:29;101970.66;;;13.10;45.09
26775;BME280;14362;51.902;7.626;2023-04-19T11:10:30;101963.81;;;13.29;44.44
26775;BME280;14362;51.902;7.626;2023-04-19T11:14:33;101967.91;;;13.58;41.44
26775;BME280;14362;51.902;7.626;2023-04-19T11:18:35;101949.78;;;13.42;41.99
26775;BME280;14362;51.902;7.626;2023-04-19T11:22:39;101943.09;;;13.52;41.75
26775;BME280;14362;51.902;7.626;2023-04-19T11:26:41;101946.94;;;13.56;41.54
26775;BME280;14362;51.902;7.626;2023-04-19T11:30:43;101943.63;;;13.54;40.79
26775;BME280;14362;51.902;7.626;2023-04-19T11:34:45;101934.38;;;13.67;40.54
26775;BME280;14362;51.902;7.626;2023-04-19T11:38:48;101924.56;;;13.78;40.31
26775;BME280;14362;51.902;7.626;2023-04-19T11:42:53;101928.31;;;13.73;38.26
26775;BME280;14362;51.902;7.626;2023-04-19T11:46:59;101920.25;;;13.94;39.56
26775;BME280;14362;51.902;7.626;2023-04-19T11:51:02;101918.06;;;13.91;40.07
26775;BME280;14362;51.902;7.626;2023-04-19T11:55:18;101899.88;;;14.02;40.72
26775;BME280;14362;51.902;7.626;2023-04-19T11:59:19;101888.97;;;14.22;40.29
26775;BME280;14362;51.902;7.626;2023-04-19T12:03:21;101889.41;;;14.37;38.94
26775;BME280;14362;51.902;7.626;2023-04-19T12:07:23;101893.19;;;14.33;36.17
26775;BME280;14362;51.902;7.626;2023-04-19T12:11:41;101888.84;;;14.27;38.18
26775;BME280;14362;51.902;7.626;2023-04-19T12:15:44;101888.28;;;14.17;39.27
26775;BME280;14362;51.902;7.626;2023-04-19T12:19:46;101878.88;;;13.99;39.27
26775;BME280;14362;51.902;7.626;2023-04-19T12:23:47;101886.25;;;14.39;38.89
26775;BME280;14362;51.902;7.626;2023-04-19T12:27:50;101868.25;;;14.32;39.46
26775;BME280;14362;51.902;7.626;2023-04-19T12:31:51;101856.03;;;14.36;39.13
26775;BME280;14362;51.902;7.626;2023-04-19T12:35:53;101872.81;;;14.58;37.98
26775;BME280;14362;51.902;7.626;2023-04-19T12:39:54;101848.72;;;14.57;37.27
26775;BME280;14362;51.902;7.626;2023-04-19T12:43:57;101829.63;;;14.76;36.90
26775;BME280;14362;51.902;7.626;2023-04-19T12:47:58;101852.94;;;14.85;38.33
26775;BME280;14362;51.902;7.626;2023-04-19T12:52:00;101855.13;;;14.88;35.27
26775;BME280;14362;51.902;7.626;2023-04-19T12:56:01;101830.44;;;14.68;36.10
26775;BME280;14362;51.902;7.626;2023-04-19T13:00:06;101828.06;;;15.00;35.59
26775;BME280;14362;51.902;7.626;2023-04-19T13:04:08;101825.22;;;14.92;35.44
26775;BME280;14362;51.902;7.626;2023-04-19T13:08:11;101819.16;;;15.15;35.34
26775;BME280;14362;51.902;7.626;2023-04-19T13:12:12;101825.88;;;14.89;35.48
26775;BME280;14362;51.902;7.626;2023-04-19T13:16:15;101807.88;;;14.90;36.78
26775;BME280;14362;51.902;7.626;2023-04-19T13:20:17;101801.66;;;15.18;35.53
26775;BME280;14362;51.902;7.626;2023-04-19T13:24:19;101802.19;;;15.37;35.48
26775;BME280;14362;51.902;7.626;2023-04-19T13:28:20;101800.81;;;15.18;35.90
26775;BME280;14362;51.902;7.626;2023-04-19T13:32:23;101777.34;;;15.22;35.72
26775;BME280;14362;51.902;7.626;2023-04-19T13:36:24;101776.19;;;14.98;35.62
26775;BME280;14362;51.902;7.626;2023-04-19T13:40:27;101752.06;;;15.22;36.37
26775;BME280;14362;51.902;7.626;2023-04-19T13:44:28;101758.03;;;15.21;36.79
26775;BME280;14362;51.902;7.626;2023-04-19T13:48:31;101762.19;;;15.32;35.40
26775;BME280;14362;51.902;7.626;2023-04-19T13:52:32;101745.66;;;15.30;35.23
26775;BME280;14362;51.902;7.626;2023-04-19T13:56:34;101738.03;;;15.39;35.93
26775;BME280;14362;51.902;7.626;2023-04-19T14:00:35;101743.84;;;15.42;36.09
26775;BME280;14362;51.902;7.626;2023-04-19T14:04:38;101725.66;;;15.32;36.03
26775;BME280;14362;51.902;7.626;2023-04-19T14:08:39;101744.13;;;15.49;35.76
26775;BME280;14362;51.902;7.626;2023-04-19T14:12:41;101716.56;;;15.43;35.58
26775;BME280;14362;51.902;7.626;2023-04-19T14:16:42;101725.63;;;15.48;33.93
26775;BME280;14362;51.902;7.626;2023-04-19T14:20:45;101723.91;;;15.81;33.58
26775;BME280;14362;51.902;7.626;2023-04-19T14:24:46;101712.69;;;15.73;32.64
26775;BME280;14362;51.902;7.626;2023-04-19T14:28:48;101711.69;;;15.77;32.13
26775;BME280;14362;51.902;7.626;2023-04-19T14:32:49;101692.63;;;15.83;32.23
26775;BME280;14362;51.902;7.626;2023-04-19T14:36:52;101690.59;;;16.00;32.04
26775;BME280;14362;51.902;7.626;2023-04-19T14:40:53;101695.06;;;16.01;31.36
26775;BME280;14362;51.902;7.626;2023-04-19T14:44:56;101695.47;;;15.74;32.35
26775;BME280;14362;51.902;7.626;2023-04-19T14:48:57;101691.31;;;15.89;31.57
26775;BME280;14362;51.902;7.626;2023-04-19T14:53:03;101678.75;;;15.78;31.53
26775;BME280;14362;51.902;7.626;2023-04-19T14:57:05;101678.19;;;16.01;31.69
26775;BME280;14362;51.902;7.626;2023-04-19T15:01:10;101683.88;;;15.84;31.12
26775;BME280;14362;51.902;7.626;2023-04-19T15:05:11;101681.78;;;15.73;30.14
26775;BME280;14362;51.902;7.626;2023-04-19T15:09:14;101684.78;;;15.59;31.17
26775;BME280;14362;51.902;7.626;2023-04-19T15:13:15;101668.72;;;15.68;32.20
26775;BME280;14362;51.902;7.626;2023-04-19T15:17:17;101673.16;;;15.69;31.47
26775;BME280;14362;51.902;7.626;2023-04-19T15:21:20;101683.38;;;15.03;32.25
26775;BME280;14362;51.902;7.626;2023-04-19T15:25:23;101670.81;;;15.17;32.23
26775;BME280;14362;51.902;7.626;2023-04-19T15:29:25;101672.63;;;15.13;32.10
26775;BME280;14362;51.902;7.626;2023-04-19T15:33:26;101665.84;;;15.31;32.38
26775;BME280;14362;51.902;7.626;2023-04-19T15:37:28;101665.38;;;15.04;32.23
26775;BME280;14362;51.902;7.626;2023-04-19T15:41:31;101667.47;;;15.24;32.89
26775;BME280;14362;51.902;7.626;2023-04-19T15:45:32;101674.78;;;15.33;31.31
26775;BME280;14362;51.902;7.626;2023-04-19T15:49:34;101669.16;;;15.16;31.19
26775;BME280;14362;51.902;7.626;2023-04-19T15:53:35;101656.09;;;15.12;31.10
26775;BME280;14362;51.902;7.626;2023-04-19T15:57:38;101655.59;;;15.18;31.69
26775;BME280;14362;51.902;7.626;2023-04-19T16:01:39;101666.03;;;15.01;32.39
26775;BME280;14362;51.902;7.626;2023-04-19T16:05:41;101657.25;;;14.68;32.53
26775;BME280;14362;51.902;7.626;2023-04-19T16:09:43;101666.84;;;14.67;32.65
26775;BME280;14362;51.902;7.626;2023-04-19T16:13:45;101682.50;;;14.51;32.23
26775;BME280;14362;51.902;7.626;2023-04-19T16:17:47;101668.06;;;14.19;33.32
26775;BME280;14362;51.902;7.626;2023-04-19T16:21:49;101666.28;;;14.23;34.29
26775;BME280;14362;51.902;7.626;2023-04-19T16:25:50;101667.13;;;14.32;32.89
26775;BME280;14362;51.902;7.626;2023-04-19T16:29:53;101671.59;;;14.33;32.70
26775;BME280;14362;51.902;7.626;2023-04-19T16:33:55;101672.94;;;14.44;32.80
26775;BME280;14362;51.902;7.626;2023-04-19T16:37:56;101665.97;;;14.25;32.56
26775;BME280;14362;51.902;7.626;2023-04-19T16:41:59;101649.94;;;14.25;33.62
26775;BME280;14362;51.902;7.626;2023-04-19T16:46:03;101665.28;;;14.28;33.46
26775;BME280;14362;51.902;7.626;2023-04-19T16:50:05;101664.19;;;13.98;33.82
26775;BME280;14362;51.902;7.626;2023-04-19T16:54:07;101670.25;;;13.92;34.68
26775;BME280;14362;51.902;7.626;2023-04-19T16:58:08;101669.88;;;13.76;34.98
26775;BME280;14362;51.902;7.626;2023-04-19T17:02:11;101672.34;;;13.78;34.74
26775;BME280;14362;51.902;7.626;2023-04-19T17:06:13;101669.22;;;13.79;34.97
26775;BME280;14362;51.902;7.626;2023-04-19T17:10:14;101661.13;;;13.69;34.41
26775;BME280;14362;51.902;7.626;2023-04-19T17:14:16;101671.53;;;13.77;34.82
26775;BME280;14362;51.902;7.626;2023-04-19T17:18:19;101655.69;;;13.73;35.14
26775;BME280;14362;51.902;7.626;2023-04-19T17:22:20;101663.63;;;13.79;34.79
26775;BME280;14362;51.902;7.626;2023-04-19T17:26:22;101657.66;;;13.72;35.27
26775;BME280;14362;51.902;7.626;2023-04-19T17:30:23;101660.69;;;13.54;35.33
26775;BME280;14362;51.902;7.626;2023-04-19T17:34:26;101662.44;;;13.41;35.65
26775;BME280;14362;51.902;7.626;2023-04-19T17:38:28;101666.31;;;13.32;36.08
26775;BME280;14362;51.902;7.626;2023-04-19T17:42:29;101666.50;;;13.27;36.36
26775;BME280;14362;51.902;7.626;2023-04-19T17:46:30;101666.44;;;13.19;36.47
26775;BME280;14362;51.902;7.626;2023-04-19T17:50:33;101669.97;;;13.11;36.36
26775;BME280;14362;51.902;7.626;2023-04-19T17:54:35;101659.59;;;12.89;37.01
26775;BME280;14362;51.902;7.626;2023-04-19T17:58:36;101663.13;;;12.81;37.39
26775;BME280;14362;51.902;7.626;2023-04-19T18:02:38;101659.47;;;12.72;37.92
26775;BME280;14362;51.902;7.626;2023-04-19T18:06:41;101664.97;;;12.64;38.36
26775;BME280;14362;51.902;7.626;2023-04-19T18:10:42;101663.53;;;12.53;38.89
26775;BME280;14362;51.902;7.626;2023-04-19T18:14:43;101659.97;;;12.39;39.18
26775;BME280;14362;51.902;7.626;2023-04-19T18:18:45;101670.97;;;12.22;39.64
26775;BME280;14362;51.902;7.626;2023-04-19T18:22:48;101675.53;;;12.05;40.87
26775;BME280;14362;51.902;7.626;2023-04-19T18:26:50;101686.72;;;12.05;40.52
26775;BME280;14362;51.902;7.626;2023-04-19T18:30:51;101679.97;;;12.06;40.51
26775;BME280;14362;51.902;7.626;2023-04-19T18:34:53;101675.53;;;11.91;41.33
26775;BME280;14362;51.902;7.626;2023-04-19T18:38:56;101673.97;;;11.99;40.75
26775;BME280;14362;51.902;7.626;2023-04-19T18:42:57;101684.03;;;11.86;41.44
26775;BME280;14362;51.902;7.626;2023-04-19T18:46:58;101675.66;;;11.73;41.74
26775;BME280;14362;51.902;7.626;2023-04-19T18:51:00;101691.25;;;11.60;42.02
26775;BME280;14362;51.902;7.626;2023-04-19T18:55:04;101690.25;;;11.51;42.05
26775;BME280;14362;51.902;7.626;2023-04-19T18:59:06;101692.56;;;11.49;43.00
26775;BME280;14362;51.902;7.626;2023-04-19T19:03:07;101692.75;;;11.53;42.53
26775;BME280;14362;51.902;7.626;2023-04-19T19:07:09;101697.16;;;11.40;42.28
26775;BME280;14362;51.902;7.626;2023-04-19T19:11:12;101700.25;;;11.25;43.59
26775;BME280;14362;51.902;7.626;2023-04-19T19:15:13;101704.03;;;11.16;43.88
26775;BME280;14362;51.902;7.626;2023-04-19T19:19:15;101706.09;;;11.11;43.60
26775;BME280;14362;51.902;7.626;2023-04-19T19:23:19;101711.13;;;11.09;43.75
26775;BME280;14362;51.902;7.626;2023-04-19T19:27:22;101706.56;;;10.99;44.81
26775;BME280;14362;51.902;7.626;2023-04-19T19:31:24;101710.75;;;10.97;44.72
26775;BME280;14362;51.902;7.626;2023-04-19T19:35:25;101707.22;;;10.91;44.80
26775;BME280;14362;51.902;7.626;2023-04-19T19:39:27;101714.63;;;10.82;45.42
26775;BME280;14362;51.902;7.626;2023-04-19T19:43:30;101709.94;;;10.78;44.74
26775;BME280;14362;51.902;7.626;2023-04-19T19:47:32;101710.13;;;10.68;45.36
26775;BME280;14362;51.902;7.626;2023-04-19T19:51:34;101706.47;;;10.67;45.69
26775;BME280;14362;51.902;7.626;2023-04-19T19:55:35;101702.25;;;10.51;45.21
26775;BME280;14362;51.902;7.626;2023-04-19T19:59:38;101709.66;;;10.42;44.91
26775;BME280;14362;51.902;7.626;2023-04-19T20:03:40;101708.81;;;10.42;43.78
26775;BME280;14362;51.902;7.626;2023-04-19T20:07:41;101719.03;;;10.28;44.91
26775;BME280;14362;51.902;7.626;2023-04-19T20:11:42;101720.31;;;10.35;43.48
26775;BME280;14362;51.902;7.626;2023-04-19T20:15:45;101716.78;;;10.30;43.22
26775;BME280;14362;51.902;7.626;2023-04-19T20:19:48;101716.69;;;10.17;43.33
26775;BME280;14362;51.902;7.626;2023-04-19T20:23:51;101719.78;;;10.15;43.28
26775;BME280;14362;51.902;7.626;2023-04-19T20:27:53;101723.44;;;10.11;43.42
26775;BME280;14362;51.902;7.626;2023-04-19T20:31:56;101716.72;;;10.12;42.40
26775;BME280;14362;51.902;7.626;2023-04-19T20:35:58;101717.63;;;10.07;42.21
26775;BME280;14362;51.902;7.626;2023-04-19T20:40:03;101722.19;;;9.98;43.03
26775;BME280;14362;51.902;7.626;2023-04-19T20:44:05;101716.28;;;10.05;41.53
26775;BME280;14362;51.902;7.626;2023-04-19T20:48:08;101700.50;;;9.95;43.36
26775;BME280;14362;51.902;7.626;2023-04-19T20:52:09;101709.81;;;10.09;41.98
26775;BME280;14362;51.902;7.626;2023-04-19T20:56:10;101708.81;;;10.00;42.54
26775;BME280;14362;51.902;7.626;2023-04-19T21:00:13;101692.72;;;9.92;42.80
26775;BME280;14362;51.902;7.626;2023-04-19T21:04:17;101708.09;;;9.90;41.81
26775;BME280;14362;51.902;7.626;2023-04-19T21:08:18;101693.81;;;9.96;41.43
26775;BME280;14362;51.902;7.626;2023-04-19T21:12:20;101683.47;;;9.97;41.00